Time;durP1;ratioP1;P1;durP2;ratioP2;P2;SDS_P1;SDS_P2;PMS_P1;PMS_P2;Temp;Humidity;BMP_temperature;BMP_pressure;BME280_temperature;BME280_humidity;BME280_pressure;Samples;Min_cycle;Max_cycle;Signal;HPM_P1;HPM_P2
2022/09/21 00:00:39;;;;;;;1.60;1.02;;;;;;;;;;10441387;28;20076;-77
2022/09/21 00:05:43;;;;;;;0.98;0.88;;;;;;;;;;10469155;28;20052;-79
2022/09/21 00:10:50;;;;;;;1.65;0.93;;;;;;;;;;10455677;28;20048;-77
2022/09/21 00:15:55;;;;;;;1.70;1.20;;;;;;;;;;10432605;28;20436;-78
2022/09/21 00:20:58;;;;;;;3.65;1.00;;;;;;;;;;10468193;28;20400;-77
2022/09/21 00:26:07;;;;;;;2.10;1.25;;;;;;;;;;10464894;28;20642;-77
2022/09/21 00:31:13;;;;;;;0.90;0.90;;;;;;;;;;10454706;28;20068;-76
2022/09/21 00:36:19;;;;;;;1.40;0.90;;;;;;;;;;10442439;28;20037;-77
2022/09/21 00:41:26;;;;;;;2.15;0.90;;;;;;;;;;10471165;28;20048;-76
2022/09/21 00:46:31;;;;;;;2.50;0.82;;;;;;;;;;10455920;28;20587;-78
2022/09/21 00:51:35;;;;;;;1.02;0.90;;;;;;;;;;10430518;28;20072;-77
2022/09/21 00:56:39;;;;;;;3.22;1.20;;;;;;;;;;10447795;28;20472;-79
2022/09/21 01:01:44;;;;;;;1.67;1.15;;;;;;;;;;10453943;28;20048;-80
2022/09/21 01:06:49;;;;;;;1.40;1.25;;;;;;;;;;10439967;28;20049;-77
2022/09/21 01:12:03;;;;;;;2.42;1.40;;;;;;;;;;10453200;28;20420;-77
2022/09/21 01:17:44;;;;;;;1.60;1.05;;;;;;;;;;10451933;28;20048;-76
2022/09/21 01:23:02;;;;;;;1.90;1.08;;;;;;;;;;10467056;28;20037;-77
2022/09/21 01:28:15;;;;;;;2.00;1.02;;;;;;;;;;10484548;28;20413;-78
2022/09/21 01:33:27;;;;;;;1.15;0.95;;;;;;;;;;10481844;28;20040;-76
2022/09/21 01:38:37;;;;;;;3.33;0.93;;;;;;;;;;10481368;28;20533;-77
2022/09/21 01:43:45;;;;;;;2.03;1.00;;;;;;;;;;10456416;28;20591;-77
2022/09/21 01:48:53;;;;;;;1.10;0.80;;;;;;;;;;10478611;28;20411;-76
2022/09/21 01:54:01;;;;;;;1.60;1.05;;;;;;;;;;10459770;28;20090;-76
2022/09/21 01:59:10;;;;;;;1.58;1.00;;;;;;;;;;10462395;28;20044;-80
2022/09/21 02:04:17;;;;;;;1.25;1.05;;;;;;;;;;10460904;28;20143;-77
2022/09/21 02:09:21;;;;;;;1.38;0.90;;;;;;;;;;10477364;28;20051;-77
2022/09/21 02:14:25;;;;;;;1.40;0.65;;;;;;;;;;10478393;28;20538;-77
2022/09/21 02:19:38;;;;;;;2.30;0.88;;;;;;;;;;10493302;28;20040;-76
2022/09/21 02:24:44;;;;;;;0.85;0.68;;;;;;;;;;10476123;28;20056;-76
2022/09/21 02:29:51;;;;;;;1.23;0.73;;;;;;;;;;10477198;28;20123;-77
2022/09/21 02:35:03;;;;;;;0.73;0.73;;;;;;;;;;10476321;28;20040;-77
2022/09/21 02:40:16;;;;;;;3.40;0.70;;;;;;;;;;10451013;28;20040;-80
2022/09/21 02:45:22;;;;;;;1.02;0.80;;;;;;;;;;10476688;28;20409;-77
2022/09/21 02:50:31;;;;;;;0.70;0.70;;;;;;;;;;10458521;28;20044;-77
2022/09/21 02:55:36;;;;;;;0.88;0.70;;;;;;;;;;10477103;28;20633;-77
2022/09/21 03:00:40;;;;;;;19.42;1.17;;;;;;;;;;10444826;28;20505;-77
2022/09/21 03:05:50;;;;;;;0.98;0.60;;;;;;;;;;10476892;28;20048;-77
2022/09/21 03:10:54;;;;;;;1.35;0.68;;;;;;;;;;10477285;28;20157;-77
2022/09/21 03:16:02;;;;;;;1.08;0.90;;;;;;;;;;10475509;28;20040;-77
2022/09/21 03:21:07;;;;;;;3.80;1.08;;;;;;;;;;10476659;28;20055;-77
2022/09/21 03:26:10;;;;;;;1.25;0.85;;;;;;;;;;10459160;28;20048;-76
2022/09/21 03:31:14;;;;;;;2.40;0.98;;;;;;;;;;10476080;28;20044;-76
2022/09/21 03:36:21;;;;;;;1.80;0.80;;;;;;;;;;10448590;28;20139;-78
2022/09/21 03:41:24;;;;;;;1.60;0.90;;;;;;;;;;10484667;28;20442;-77
2022/09/21 03:46:28;;;;;;;1.10;0.95;;;;;;;;;;10460312;28;20044;-77
2022/09/21 03:51:32;;;;;;;3.60;0.80;;;;;;;;;;10469343;28;20120;-77
2022/09/21 03:56:36;;;;;;;1.02;0.93;;;;;;;;;;10477047;28;20120;-77
2022/09/21 04:01:39;;;;;;;2.20;1.20;;;;;;;;;;10467380;28;20051;-77
2022/09/21 04:06:45;;;;;;;1.77;1.00;;;;;;;;;;10451760;28;20110;-77
2022/09/21 04:11:50;;;;;;;1.02;1.00;;;;;;;;;;10475695;28;20052;-77
2022/09/21 04:16:56;;;;;;;5.25;0.95;;;;;;;;;;10448390;28;20052;-77
2022/09/21 04:22:01;;;;;;;1.30;0.80;;;;;;;;;;10455801;28;20044;-78
2022/09/21 04:27:05;;;;;;;4.35;1.10;;;;;;;;;;10452150;28;20311;-77
2022/09/21 04:32:08;;;;;;;5.00;1.00;;;;;;;;;;10458613;28;20052;-77
2022/09/21 04:37:13;;;;;;;1.05;1.00;;;;;;;;;;10466093;28;20052;-77
2022/09/21 04:42:16;;;;;;;1.10;1.00;;;;;;;;;;10458629;28;20041;-77
2022/09/21 04:47:22;;;;;;;1.40;1.02;;;;;;;;;;10458839;28;20036;-78
2022/09/21 04:52:27;;;;;;;1.67;1.42;;;;;;;;;;10462885;28;20090;-78
2022/09/21 04:57:30;;;;;;;1.40;1.25;;;;;;;;;;10481219;28;20064;-77
2022/09/21 05:02:33;;;;;;;1.60;1.10;;;;;;;;;;10458222;28;20063;-77
2022/09/21 05:07:38;;;;;;;1.88;1.55;;;;;;;;;;10497569;28;20047;-78
2022/09/21 05:12:42;;;;;;;3.13;1.50;;;;;;;;;;10482663;28;20113;-78
2022/09/21 05:17:45;;;;;;;2.10;1.25;;;;;;;;;;10493788;28;20072;-77
2022/09/21 05:22:50;;;;;;;2.92;1.30;;;;;;;;;;10469558;28;20040;-78
2022/09/21 05:27:53;;;;;;;1.20;1.05;;;;;;;;;;10467122;28;20060;-76
2022/09/21 05:33:01;;;;;;;2.58;1.30;;;;;;;;;;10485825;28;20793;-78
2022/09/21 05:38:12;;;;;;;2.03;1.20;;;;;;;;;;10452482;28;20513;-77
2022/09/21 05:43:16;;;;;;;3.42;1.42;;;;;;;;;;10494136;28;20044;-77
2022/09/21 05:48:21;;;;;;;1.63;1.00;;;;;;;;;;10452272;28;20128;-77
2022/09/21 05:53:45;;;;;;;1.27;1.17;;;;;;;;;;10468575;28;20090;-78
2022/09/21 05:58:58;;;;;;;1.83;1.10;;;;;;;;;;10491626;28;20036;-78
2022/09/21 06:04:03;;;;;;;3.65;0.93;;;;;;;;;;10482051;28;20524;-78
2022/09/21 06:09:08;;;;;;;1.10;0.90;;;;;;;;;;10492003;28;20618;-78
2022/09/21 06:14:11;;;;;;;1.05;0.95;;;;;;;;;;10460996;28;20079;-78
2022/09/21 06:19:14;;;;;;;1.92;0.93;;;;;;;;;;10455588;28;20051;-78
2022/09/21 06:24:19;;;;;;;0.80;0.80;;;;;;;;;;10472937;28;20041;-77
2022/09/21 06:29:23;;;;;;;0.90;0.80;;;;;;;;;;10459250;28;20045;-77
2022/09/21 06:34:26;;;;;;;0.90;0.80;;;;;;;;;;10467009;28;20037;-77
2022/09/21 06:39:31;;;;;;;1.30;0.90;;;;;;;;;;10445746;28;20036;-77
2022/09/21 06:44:34;;;;;;;0.80;0.80;;;;;;;;;;10454216;28;20045;-77
2022/09/21 06:49:37;;;;;;;1.27;0.75;;;;;;;;;;10436490;28;20424;-77
2022/09/21 06:54:45;;;;;;;0.82;0.82;;;;;;;;;;10477447;28;20039;-77
2022/09/21 06:59:48;;;;;;;2.78;1.25;;;;;;;;;;10454043;28;20070;-77
2022/09/21 07:04:51;;;;;;;1.13;0.90;;;;;;;;;;10456028;28;20059;-77
2022/09/21 07:09:57;;;;;;;0.50;0.50;;;;;;;;;;10444819;28;20436;-77
2022/09/21 07:15:10;;;;;;;0.70;0.70;;;;;;;;;;10469110;28;20075;-79
2022/09/21 07:20:14;;;;;;;0.70;0.70;;;;;;;;;;10455541;28;20041;-77
2022/09/21 07:25:21;;;;;;;1.17;0.65;;;;;;;;;;10468022;28;20029;-78
2022/09/21 07:30:26;;;;;;;0.68;0.50;;;;;;;;;;10478000;28;20048;-77
2022/09/21 07:35:29;;;;;;;0.98;0.73;;;;;;;;;;10445692;28;20040;-77
2022/09/21 07:40:35;;;;;;;1.05;0.80;;;;;;;;;;10486098;28;20496;-80
2022/09/21 07:45:38;;;;;;;1.08;1.00;;;;;;;;;;10481667;28;20067;-78
2022/09/21 07:50:41;;;;;;;1.05;0.95;;;;;;;;;;10458353;28;20053;-78
2022/09/21 07:55:46;;;;;;;0.82;0.70;;;;;;;;;;10454636;28;20060;-78
2022/09/21 08:00:49;;;;;;;1.38;0.90;;;;;;;;;;10489015;28;20055;-78
2022/09/21 08:05:52;;;;;;;1.02;0.70;;;;;;;;;;10483383;28;20573;-78
2022/09/21 08:11:03;;;;;;;1.70;1.58;;;;;;;;;;10455006;28;20049;-78
2022/09/21 08:16:06;;;;;;;3.70;1.90;;;;;;;;;;10459955;28;20040;-78
2022/09/21 08:21:11;;;;;;;2.47;1.50;;;;;;;;;;10453900;28;20040;-78
2022/09/21 08:26:18;;;;;;;5.20;1.73;;;;;;;;;;10458084;28;20124;-78
2022/09/21 08:31:23;;;;;;;1.73;1.40;;;;;;;;;;10478408;28;20128;-78
2022/09/21 08:36:27;;;;;;;2.90;1.67;;;;;;;;;;10478484;28;20455;-78
2022/09/21 08:41:50;;;;;;;1.60;1.50;;;;;;;;;;10468386;28;20527;-78
2022/09/21 08:47:02;;;;;;;1.05;0.95;;;;;;;;;;10451865;28;20056;-80
2022/09/21 08:52:07;;;;;;;2.58;1.58;;;;;;;;;;10496902;28;20037;-79
2022/09/21 08:57:14;;;;;;;1.58;1.40;;;;;;;;;;10452811;28;20047;-80
2022/09/21 09:02:38;;;;;;;4.30;1.90;;;;;;;;;;10454920;28;20068;-80
2022/09/21 09:08:03;;;;;;;3.55;2.10;;;;;;;;;;10478162;28;20052;-80
2022/09/21 09:13:21;;;;;;;1.77;1.67;;;;;;;;;;10481187;28;20048;-80
2022/09/21 09:18:33;;;;;;;2.13;1.50;;;;;;;;;;10460532;28;20064;-79
2022/09/21 09:23:40;;;;;;;2.42;1.80;;;;;;;;;;10478779;28;20455;-79
2022/09/21 09:28:48;;;;;;;2.28;1.50;;;;;;;;;;10448791;28;20099;-80
2022/09/21 09:34:01;;;;;;;1.30;1.20;;;;;;;;;;10479609;28;20049;-80
2022/09/21 09:39:11;;;;;;;1.25;1.15;;;;;;;;;;10495365;28;20635;-80
2022/09/21 09:44:28;;;;;;;1.30;0.95;;;;;;;;;;10471371;28;20702;-80
2022/09/21 09:49:41;;;;;;;0.82;0.82;;;;;;;;;;10487331;28;20479;-80
2022/09/21 09:54:45;;;;;;;0.90;0.88;;;;;;;;;;10481838;28;20052;-80
2022/09/21 09:59:54;;;;;;;1.40;1.15;;;;;;;;;;10467122;28;20040;-80
2022/09/21 10:05:04;;;;;;;2.95;2.38;;;;;;;;;;10469093;28;20048;-79
2022/09/21 10:10:24;;;;;;;3.67;2.60;;;;;;;;;;10465938;28;20045;-79
2022/09/21 10:15:29;;;;;;;2.53;1.42;;;;;;;;;;10470341;28;20052;-79
2022/09/21 10:20:33;;;;;;;2.53;2.00;;;;;;;;;;10454746;28;20045;-79
2022/09/21 10:25:36;;;;;;;1.75;1.33;;;;;;;;;;10462590;28;20087;-79
2022/09/21 10:30:43;;;;;;;1.50;0.98;;;;;;;;;;10470858;28;20052;-79
2022/09/21 10:35:51;;;;;;;1.20;1.00;;;;;;;;;;10459884;28;20052;-79
2022/09/21 10:40:54;;;;;;;1.67;0.70;;;;;;;;;;10473983;28;20036;-78
2022/09/21 10:45:59;;;;;;;2.22;0.50;;;;;;;;;;10489098;28;20040;-78
2022/09/21 10:51:03;;;;;;;0.88;0.45;;;;;;;;;;10466953;28;20508;-79
2022/09/21 10:56:15;;;;;;;0.57;0.35;;;;;;;;;;10465315;28;20036;-78
2022/09/21 11:01:23;;;;;;;0.82;0.30;;;;;;;;;;10452966;28;20674;-83
2022/09/21 11:06:30;;;;;;;0.60;0.30;;;;;;;;;;10472206;28;20789;-78
2022/09/21 11:11:46;;;;;;;1.00;0.20;;;;;;;;;;10465185;28;20044;-79
2022/09/21 11:17:14;;;;;;;1.05;0.30;;;;;;;;;;10438381;28;20055;-79
2022/09/21 11:22:44;;;;;;;0.10;0.10;;;;;;;;;;10446251;28;20040;-79
2022/09/21 11:28:21;;;;;;;0.55;0.20;;;;;;;;;;10476247;28;20497;-79
2022/09/21 11:33:38;;;;;;;0.35;0.10;;;;;;;;;;10458278;28;20047;-78
2022/09/21 11:38:54;;;;;;;0.40;0.20;;;;;;;;;;10466415;28;20105;-78
2022/09/21 11:44:10;;;;;;;0.82;0.20;;;;;;;;;;10460015;28;20433;-78
2022/09/21 11:49:31;;;;;;;0.68;0.20;;;;;;;;;;10460727;28;20415;-79
2022/09/21 11:55:04;;;;;;;1.17;0.20;;;;;;;;;;10456213;28;20048;-78
2022/09/21 12:00:14;;;;;;;0.20;0.10;;;;;;;;;;10466982;28;20164;-78
2022/09/21 12:05:30;;;;;;;0.55;0.28;;;;;;;;;;10444429;28;20041;-78
2022/09/21 12:10:43;;;;;;;0.30;0.10;;;;;;;;;;10460390;28;20595;-78
2022/09/21 12:15:50;;;;;;;1.40;0.20;;;;;;;;;;10471087;28;20101;-78
2022/09/21 12:21:01;;;;;;;1.25;0.20;;;;;;;;;;10443174;28;20114;-78
2022/09/21 12:26:07;;;;;;;0.63;0.30;;;;;;;;;;10461593;28;20043;-78
2022/09/21 12:31:15;;;;;;;0.73;0.10;;;;;;;;;;10463838;28;20496;-78
2022/09/21 12:36:25;;;;;;;0.35;0.20;;;;;;;;;;10477638;28;20048;-79
2022/09/21 12:41:36;;;;;;;0.20;0.10;;;;;;;;;;10463108;28;20034;-80
2022/09/21 12:46:46;;;;;;;0.40;0.15;;;;;;;;;;10445437;28;20044;-78
2022/09/21 12:51:55;;;;;;;1.33;0.40;;;;;;;;;;10455214;28;20045;-78
2022/09/21 12:57:08;;;;;;;0.80;0.20;;;;;;;;;;10466585;28;20036;-79
2022/09/21 13:02:24;;;;;;;1.38;0.32;;;;;;;;;;10486475;28;20123;-79
2022/09/21 13:08:02;;;;;;;0.68;0.20;;;;;;;;;;10470714;28;20051;-79
2022/09/21 13:13:07;;;;;;;;;;;;;;;;;;10470612;28;20567;-78
2022/09/21 13:18:20;;;;;;;0.22;0.10;;;;;;;;;;10448791;28;19995;-79
2022/09/21 13:23:34;;;;;;;0.77;0.22;;;;;;;;;;10478849;28;20530;-79
2022/09/21 13:28:57;;;;;;;0.63;0.20;;;;;;;;;;10457556;28;20529;-79
2022/09/21 13:34:20;;;;;;;0.30;0.20;;;;;;;;;;10469944;28;20539;-79
2022/09/21 13:39:25;;;;;;;0.28;0.20;;;;;;;;;;10482965;28;20041;-80
2022/09/21 13:44:41;;;;;;;0.82;0.30;;;;;;;;;;10461045;28;20591;-77
2022/09/21 13:49:50;;;;;;;0.45;0.20;;;;;;;;;;10471884;28;20047;-78
2022/09/21 13:54:59;;;;;;;0.40;0.20;;;;;;;;;;10468798;28;20041;-77
2022/09/21 14:00:34;;;;;;;0.10;0.10;;;;;;;;;;10456694;28;20439;-78
2022/09/21 14:05:42;;;;;;;0.63;0.17;;;;;;;;;;10460655;28;20055;-78
2022/09/21 14:10:53;;;;;;;0.32;0.25;;;;;;;;;;10454676;28;20047;-77
2022/09/21 14:16:49;;;;;;;0.20;0.15;;;;;;;;;;10486686;28;20037;-77
2022/09/21 14:22:27;;;;;;;0.10;0.10;;;;;;;;;;10458226;28;20047;-78
2022/09/21 14:27:34;;;;;;;1.55;0.50;;;;;;;;;;10469548;28;20036;-78
2022/09/21 14:32:46;;;;;;;1.30;0.20;;;;;;;;;;10456392;28;20052;-77
2022/09/21 14:37:52;;;;;;;0.45;0.20;;;;;;;;;;10459249;28;20048;-77
2022/09/21 14:43:00;;;;;;;1.73;0.40;;;;;;;;;;10465751;28;20107;-77
2022/09/21 14:48:13;;;;;;;0.40;0.20;;;;;;;;;;10455841;28;20063;-78
2022/09/21 14:53:33;;;;;;;2.33;0.32;;;;;;;;;;10451411;28;20037;-78
2022/09/21 14:58:50;;;;;;;0.43;0.15;;;;;;;;;;10469123;28;20084;-77
2022/09/21 15:04:15;;;;;;;0.30;0.20;;;;;;;;;;10477354;28;20447;-78
2022/09/21 15:15:12;;;;;;;0.30;0.20;;;;;;;;;;10445330;28;20044;-78
2022/09/21 15:20:22;;;;;;;0.20;0.20;;;;;;;;;;10465198;28;20396;-78
2022/09/21 15:25:27;;;;;;;1.17;0.50;;;;;;;;;;10466240;28;20460;-78
2022/09/21 15:30:40;;;;;;;0.20;0.20;;;;;;;;;;10463775;28;20039;-77
2022/09/21 15:35:47;;;;;;;0.15;0.15;;;;;;;;;;10450263;28;20405;-79
2022/09/21 15:40:50;;;;;;;0.55;0.20;;;;;;;;;;10484953;28;20044;-78
2022/09/21 15:45:58;;;;;;;1.67;0.43;;;;;;;;;;10448370;28;20052;-77
2022/09/21 15:51:13;;;;;;;0.20;0.15;;;;;;;;;;10472457;28;20413;-79
2022/09/21 15:56:19;;;;;;;0.60;0.20;;;;;;;;;;10450111;28;20047;-82
2022/09/21 16:01:24;;;;;;;0.40;0.20;;;;;;;;;;10457309;28;20097;-77
2022/09/21 16:06:34;;;;;;;0.20;0.10;;;;;;;;;;10450070;28;20140;-78
2022/09/21 16:11:38;;;;;;;2.63;0.38;;;;;;;;;;10466328;28;20497;-77
2022/09/21 16:17:19;;;;;;;2.35;0.30;;;;;;;;;;10444796;28;20060;-80
2022/09/21 16:22:28;;;;;;;2.20;0.22;;;;;;;;;;10453357;28;20039;-78
2022/09/21 16:27:32;;;;;;;0.90;0.28;;;;;;;;;;10462779;28;20048;-78
2022/09/21 16:32:39;;;;;;;0.65;0.20;;;;;;;;;;10453178;28;20040;-78
2022/09/21 16:37:43;;;;;;;0.20;0.20;;;;;;;;;;10473977;28;20053;-77
2022/09/21 16:42:47;;;;;;;0.47;0.10;;;;;;;;;;10459259;28;20060;-77
2022/09/21 16:47:52;;;;;;;0.10;0.10;;;;;;;;;;10447565;28;20040;-78
2022/09/21 16:52:57;;;;;;;0.63;0.20;;;;;;;;;;10480165;28;20040;-77
2022/09/21 16:58:01;;;;;;;0.35;0.20;;;;;;;;;;10462079;28;20504;-77
2022/09/21 17:03:04;;;;;;;0.65;0.20;;;;;;;;;;10476829;28;20114;-77
2022/09/21 17:08:10;;;;;;;0.10;0.10;;;;;;;;;;10465444;28;20051;-80
2022/09/21 17:13:15;;;;;;;0.40;0.20;;;;;;;;;;10475723;28;20504;-77
2022/09/21 17:18:19;;;;;;;0.50;0.15;;;;;;;;;;10447591;28;20052;-78
2022/09/21 17:23:27;;;;;;;0.75;0.20;;;;;;;;;;10469000;28;20044;-78
2022/09/21 17:28:31;;;;;;;0.65;0.20;;;;;;;;;;10440768;28;20122;-81
2022/09/21 17:33:34;;;;;;;1.27;0.30;;;;;;;;;;10472648;28;20041;-78
2022/09/21 17:38:39;;;;;;;0.40;0.40;;;;;;;;;;10465603;28;20045;-77
2022/09/21 17:43:52;;;;;;;1.85;0.82;;;;;;;;;;10473394;28;20044;-77
2022/09/21 17:48:56;;;;;;;1.00;0.65;;;;;;;;;;10469999;28;20044;-79
2022/09/21 17:54:01;;;;;;;1.00;0.63;;;;;;;;;;10446826;28;20536;-77
2022/09/21 17:59:08;;;;;;;1.90;0.60;;;;;;;;;;10459404;28;20047;-77
2022/09/21 18:04:12;;;;;;;1.33;0.85;;;;;;;;;;10471513;28;20463;-78
2022/09/21 18:09:17;;;;;;;1.75;1.10;;;;;;;;;;10473048;28;20044;-77
2022/09/21 18:14:31;;;;;;;2.80;1.80;;;;;;;;;;10465292;28;20045;-78
2022/09/21 18:19:59;;;;;;;0.80;0.65;;;;;;;;;;10471593;28;20045;-79
2022/09/21 18:25:11;;;;;;;1.02;0.50;;;;;;;;;;10481034;28;20049;-78
2022/09/21 18:30:16;;;;;;;1.02;0.80;;;;;;;;;;10477532;28;20032;-78
2022/09/21 18:35:36;;;;;;;2.83;1.35;;;;;;;;;;10461805;28;20051;-78
2022/09/21 18:40:51;;;;;;;2.63;1.33;;;;;;;;;;10462819;28;20048;-77
2022/09/21 18:46:01;;;;;;;2.15;1.20;;;;;;;;;;10444740;28;20060;-78
2022/09/21 18:51:12;;;;;;;2.55;1.50;;;;;;;;;;10451938;28;20803;-78
2022/09/21 18:56:18;;;;;;;1.52;1.10;;;;;;;;;;10458877;28;20426;-79
2022/09/21 19:01:22;;;;;;;1.63;1.30;;;;;;;;;;10464343;28;20441;-78
2022/09/21 19:06:38;;;;;;;2.08;1.50;;;;;;;;;;10458876;28;20043;-78
2022/09/21 19:11:48;;;;;;;2.50;1.60;;;;;;;;;;10471211;28;20045;-78
2022/09/21 19:17:04;;;;;;;3.58;1.40;;;;;;;;;;10469173;28;20284;-78
2022/09/21 19:22:20;;;;;;;2.25;1.55;;;;;;;;;;10464625;28;20098;-78
2022/09/21 19:27:39;;;;;;;2.45;1.80;;;;;;;;;;10453681;28;20056;-78
2022/09/21 19:32:46;;;;;;;2.88;1.98;;;;;;;;;;10462900;28;20058;-78
2022/09/21 19:37:51;;;;;;;3.80;1.70;;;;;;;;;;10460031;28;20056;-78
2022/09/21 19:43:08;;;;;;;4.28;2.28;;;;;;;;;;10448834;28;20054;-78
2022/09/21 19:48:15;;;;;;;3.03;1.60;;;;;;;;;;10454058;28;20512;-78
2022/09/21 20:04:06;;;;;;;1.98;1.67;;;;;;;;;;10443028;28;20447;-81
2022/09/21 20:09:14;;;;;;;3.55;2.00;;;;;;;;;;10448288;28;20052;-77
2022/09/21 20:14:32;;;;;;;2.88;1.98;;;;;;;;;;10436848;28;20055;-78
2022/09/21 20:19:45;;;;;;;4.13;2.13;;;;;;;;;;10451835;28;20044;-78
2022/09/21 20:24:57;;;;;;;3.80;2.30;;;;;;;;;;10452771;28;20044;-78
2022/09/21 20:30:03;;;;;;;2.78;2.10;;;;;;;;;;10472615;28;20454;-78
2022/09/21 20:35:16;;;;;;;2.58;1.50;;;;;;;;;;10478920;28;20037;-79
2022/09/21 20:40:23;;;;;;;1.75;1.40;;;;;;;;;;10453517;28;20033;-77
2022/09/21 20:45:28;;;;;;;4.85;1.45;;;;;;;;;;10474663;28;20412;-78
2022/09/21 20:50:32;;;;;;;2.20;1.15;;;;;;;;;;10456095;28;20057;-78
2022/09/21 20:55:36;;;;;;;4.45;2.08;;;;;;;;;;10481238;28;20040;-79
2022/09/21 21:00:41;;;;;;;3.80;2.10;;;;;;;;;;10446866;28;20036;-77
2022/09/21 21:05:44;;;;;;;3.80;2.17;;;;;;;;;;10472003;28;20056;-77
2022/09/21 21:10:48;;;;;;;4.57;2.67;;;;;;;;;;10481811;28;20056;-78
2022/09/21 21:15:54;;;;;;;5.60;3.08;;;;;;;;;;10470838;28;20103;-77
2022/09/21 21:21:00;;;;;;;;;;;;;;;;;;10441232;28;20034;-77
2022/09/21 21:26:05;;;;;;;5.38;2.78;;;;;;;;;;10462853;28;19927;-77
2022/09/21 21:31:10;;;;;;;5.50;2.55;;;;;;;;;;10467740;28;20041;-76
2022/09/21 21:36:14;;;;;;;3.38;1.75;;;;;;;;;;10452114;28;20535;-76
2022/09/21 21:41:18;;;;;;;3.03;1.80;;;;;;;;;;10440642;28;20104;-76
2022/09/21 21:46:22;;;;;;;2.67;1.90;;;;;;;;;;10468100;28;20048;-78
2022/09/21 21:51:28;;;;;;;2.88;1.30;;;;;;;;;;10440007;28;20045;-76
2022/09/21 21:56:32;;;;;;;1.77;1.27;;;;;;;;;;10462961;28;20067;-76
2022/09/21 22:01:38;;;;;;;2.42;1.50;;;;;;;;;;10455069;28;20039;-80
2022/09/21 22:06:41;;;;;;;2.10;1.33;;;;;;;;;;10452787;28;20536;-76
2022/09/21 22:11:45;;;;;;;2.35;1.48;;;;;;;;;;10470178;28;20136;-76
2022/09/21 22:16:50;;;;;;;2.72;1.60;;;;;;;;;;10444280;28;20051;-76
2022/09/21 22:21:53;;;;;;;3.42;1.13;;;;;;;;;;10452660;28;20535;-78
2022/09/21 22:26:56;;;;;;;1.85;1.20;;;;;;;;;;10449515;28;20045;-77
2022/09/21 22:32:02;;;;;;;1.98;1.30;;;;;;;;;;10445649;28;20155;-77
2022/09/21 22:37:05;;;;;;;1.55;1.17;;;;;;;;;;10472764;28;20412;-80
2022/09/21 22:42:11;;;;;;;1.67;1.20;;;;;;;;;;10464432;28;20063;-76
2022/09/21 22:47:15;;;;;;;2.63;1.40;;;;;;;;;;10455810;28;20044;-76
2022/09/21 22:52:19;;;;;;;1.30;1.08;;;;;;;;;;10452218;28;20052;-76
2022/09/21 22:57:22;;;;;;;1.52;1.10;;;;;;;;;;10441519;28;20044;-77
2022/09/21 23:02:27;;;;;;;0.98;0.85;;;;;;;;;;10454179;28;20048;-76
2022/09/21 23:07:31;;;;;;;1.10;0.95;;;;;;;;;;10443143;28;20037;-80
2022/09/21 23:12:34;;;;;;;2.17;0.95;;;;;;;;;;10442342;28;20048;-76
2022/09/21 23:17:39;;;;;;;1.13;1.00;;;;;;;;;;10459392;28;20513;-76
2022/09/21 23:22:42;;;;;;;1.83;1.17;;;;;;;;;;10450459;28;20052;-76
2022/09/21 23:27:46;;;;;;;2.08;1.33;;;;;;;;;;10442356;28;20056;-76
2022/09/21 23:32:51;;;;;;;1.88;1.10;;;;;;;;;;10459223;28;20055;-77
2022/09/21 23:37:55;;;;;;;2.37;1.20;;;;;;;;;;10430910;28;20048;-76
2022/09/21 23:42:58;;;;;;;1.85;1.17;;;;;;;;;;10445366;28;20040;-76
2022/09/21 23:48:03;;;;;;;1.85;1.20;;;;;;;;;;10457825;28;20037;-76
2022/09/21 23:53:06;;;;;;;1.85;1.05;;;;;;;;;;10460178;28;20045;-76
2022/09/21 23:58:09;;;;;;;1.75;1.25;;;;;;;;;;10461340;28;20098;-79
